createdAt,value
2018-11-25T00:00:18.191Z,76.41
2018-11-25T00:02:30.459Z,75.47
2018-11-25T00:04:42.651Z,75.78
2018-11-25T00:06:54.856Z,76.35
2018-11-25T00:09:07.832Z,76.47
2018-11-25T00:11:20.053Z,76.42
2018-11-25T00:13:32.299Z,75.72
2018-11-25T00:15:44.475Z,75.60
2018-11-25T00:17:56.719Z,75.23
2018-11-25T00:20:11.749Z,75.59
2018-11-25T00:22:23.947Z,75.95
2018-11-25T00:24:36.152Z,76.73
2018-11-25T00:26:48.303Z,76.69
2018-11-25T00:29:00.539Z,76.07
2018-11-25T00:31:12.728Z,76.93
2018-11-25T00:33:24.901Z,76.70
2018-11-25T00:35:37.095Z,75.99
2018-11-25T00:37:49.276Z,76.09
2018-11-25T00:40:01.492Z,76.15
2018-11-25T00:42:13.671Z,77.05
2018-11-25T00:44:25.864Z,77.22
2018-11-25T00:46:38.052Z,77.57
2018-11-25T00:48:50.267Z,76.74
2018-11-25T00:51:02.493Z,77.66
2018-11-25T00:53:14.644Z,77.26
2018-11-25T00:55:26.888Z,77.38
2018-11-25T00:57:39.095Z,77.06
2018-11-25T00:59:51.303Z,77.83
2018-11-25T01:02:03.599Z,78.04
2018-11-25T01:04:15.785Z,77.64
2018-11-25T01:06:27.973Z,77.60
2018-11-25T01:08:40.163Z,77.62
2018-11-25T01:10:52.924Z,78.61
2018-11-25T01:13:05.184Z,78.33
2018-11-25T01:15:17.668Z,78.18
2018-11-25T01:17:29.887Z,79.25
2018-11-25T01:19:42.083Z,78.58
2018-11-25T01:21:54.265Z,79.39
2018-11-25T01:24:06.436Z,78.75
2018-11-25T01:26:18.650Z,79.71
2018-11-25T01:28:30.839Z,79.47
2018-11-25T01:30:43.043Z,79.39
2018-11-25T01:32:55.205Z,80.26
2018-11-25T01:35:08.532Z,79.25
2018-11-25T01:37:20.756Z,79.79
2018-11-25T01:39:32.967Z,79.91
2018-11-25T01:41:45.133Z,79.92
2018-11-25T01:43:57.306Z,79.57
2018-11-25T01:46:09.525Z,80.46
2018-11-25T01:48:21.691Z,79.96
2018-11-25T01:50:33.864Z,79.83
2018-11-25T01:52:46.601Z,80.41
2018-11-25T01:54:58.758Z,80.52
2018-11-25T01:57:10.945Z,80.32
2018-11-25T01:59:23.128Z,81.74
2018-11-25T02:01:35.316Z,82.22
2018-11-25T02:03:47.534Z,82.13
2018-11-25T02:05:59.711Z,82.23
2018-11-25T02:08:11.921Z,81.34
2018-11-25T02:10:24.140Z,81.19
2018-11-25T02:12:36.364Z,81.88
2018-11-25T02:14:48.611Z,81.62
2018-11-25T02:17:00.847Z,80.90
2018-11-25T02:19:13.028Z,82.12
2018-11-25T02:21:25.214Z,81.38
2018-11-25T02:23:37.409Z,81.33
2018-11-25T02:25:49.596Z,81.10
2018-11-25T02:28:01.808Z,81.03
2018-11-25T02:30:14.893Z,81.39
2018-11-25T02:32:27.048Z,80.71
2018-11-25T02:34:39.216Z,80.67
2018-11-25T02:36:51.400Z,81.35
2018-11-25T02:39:05.361Z,80.59
2018-11-25T02:41:17.552Z,80.59
2018-11-25T02:43:29.748Z,80.58
2018-11-25T02:45:41.934Z,80.78
2018-11-25T02:47:54.107Z,80.29
2018-11-25T02:50:25.092Z,80.87
2018-11-25T02:52:37.276Z,81.42
2018-11-25T02:54:49.446Z,80.78
2018-11-25T02:57:01.660Z,81.43
2018-11-25T02:59:13.896Z,81.30
2018-11-25T03:01:26.036Z,81.13
2018-11-25T03:03:38.213Z,80.41
2018-11-25T03:05:50.438Z,81.17
2018-11-25T03:08:02.623Z,81.30
2018-11-25T03:10:14.836Z,80.95
2018-11-25T03:12:27.036Z,81.10
2018-11-25T03:14:39.206Z,80.46
2018-11-25T03:16:51.445Z,81.20
2018-11-25T03:19:03.644Z,80.92
2018-11-25T03:21:15.837Z,80.12
2018-11-25T03:23:27.960Z,80.46
2018-11-25T03:25:40.168Z,80.59
2018-11-25T03:27:52.362Z,79.87
2018-11-25T03:30:08.747Z,80.33
2018-11-25T03:32:20.936Z,79.52
2018-11-25T03:34:33.079Z,79.82
2018-11-25T03:36:45.238Z,79.41
2018-11-25T03:38:57.421Z,78.29
2018-11-25T03:41:09.628Z,78.25
2018-11-25T03:43:21.807Z,78.88
2018-11-25T03:45:33.974Z,78.73
2018-11-25T03:47:46.209Z,78.71
2018-11-25T03:49:58.404Z,79.33
2018-11-25T03:52:10.576Z,79.60
2018-11-25T03:54:22.750Z,80.52
2018-11-25T03:56:34.901Z,80.31
2018-11-25T03:58:47.093Z,79.83
2018-11-25T04:00:59.300Z,80.26
2018-11-25T04:03:11.484Z,79.85
2018-11-25T04:05:23.643Z,80.43
2018-11-25T04:07:35.835Z,80.64
2018-11-25T04:09:48.046Z,80.82
2018-11-25T04:12:00.226Z,80.57
2018-11-25T04:14:12.436Z,79.91
2018-11-25T04:16:24.623Z,80.29
2018-11-25T04:18:36.803Z,80.27
2018-11-25T04:20:48.980Z,79.69
2018-11-25T04:23:01.148Z,80.41
2018-11-25T04:25:13.488Z,80.73
2018-11-25T04:27:25.652Z,80.30
2018-11-25T04:29:37.867Z,80.58
2018-11-25T04:31:50.043Z,81.49
2018-11-25T04:34:02.227Z,81.31
2018-11-25T04:36:14.464Z,81.52
2018-11-25T04:38:26.639Z,81.72
2018-11-25T04:40:38.868Z,81.05
2018-11-25T04:42:51.278Z,81.58
2018-11-25T04:45:03.756Z,81.26
2018-11-25T04:47:15.966Z,80.24
2018-11-25T04:49:28.112Z,80.99
2018-11-25T04:51:40.295Z,80.44
2018-11-25T04:53:52.480Z,80.50
2018-11-25T04:56:05.263Z,80.63
2018-11-25T04:58:17.431Z,80.51
2018-11-25T05:00:29.656Z,81.02
2018-11-25T05:02:41.836Z,80.54
2018-11-25T05:04:54.037Z,81.00
2018-11-25T05:07:06.530Z,80.97
2018-11-25T05:09:18.759Z,80.91
2018-11-25T05:11:30.938Z,81.39
2018-11-25T05:13:43.110Z,80.74
2018-11-25T05:15:55.363Z,80.93
2018-11-25T05:18:07.559Z,80.85
2018-11-25T05:20:19.970Z,80.89
2018-11-25T05:22:32.164Z,82.08
2018-11-25T05:24:44.379Z,82.24
2018-11-25T05:26:56.561Z,82.33
2018-11-25T05:29:08.755Z,82.07
2018-11-25T05:31:20.916Z,82.47
2018-11-25T05:33:33.098Z,81.55
2018-11-25T05:35:45.293Z,81.50
2018-11-25T05:37:57.490Z,81.28
2018-11-25T05:40:10.551Z,81.86
2018-11-25T05:42:22.751Z,81.57
2018-11-25T05:44:34.979Z,81.91
2018-11-25T05:46:47.146Z,82.48
2018-11-25T05:48:59.327Z,81.49
2018-11-25T05:51:11.495Z,82.07
2018-11-25T05:53:23.689Z,82.02
2018-11-25T05:55:35.856Z,82.00
2018-11-25T05:57:48.053Z,81.11
2018-11-25T06:00:00.254Z,81.84
2018-11-25T06:02:12.457Z,81.48
2018-11-25T06:04:24.639Z,81.74
2018-11-25T06:06:36.812Z,81.24
2018-11-25T06:08:49.023Z,81.54
2018-11-25T06:11:01.237Z,81.17
2018-11-25T06:13:13.399Z,81.27
2018-11-25T06:15:25.580Z,81.69
2018-11-25T06:17:37.755Z,81.51
2018-11-25T06:19:49.947Z,81.57
2018-11-25T06:22:02.110Z,81.42
2018-11-25T06:24:14.335Z,81.45
2018-11-25T06:26:26.520Z,80.77
2018-11-25T06:28:38.764Z,81.18
2018-11-25T06:30:50.943Z,81.24
2018-11-25T06:33:03.115Z,80.71
2018-11-25T06:35:16.250Z,81.61
2018-11-25T06:37:28.427Z,81.39
2018-11-25T06:39:40.618Z,81.29
2018-11-25T06:41:52.818Z,81.20
2018-11-25T06:44:05.432Z,81.55
2018-11-25T06:46:17.624Z,81.37
2018-11-25T06:48:29.815Z,81.26
2018-11-25T06:50:42.027Z,81.76
2018-11-25T06:52:54.258Z,81.46
2018-11-25T06:55:07.872Z,81.75
2018-11-25T06:57:20.061Z,81.62
2018-11-25T06:59:32.224Z,80.72
2018-11-25T07:01:44.408Z,81.89
2018-11-25T07:03:56.579Z,80.82
2018-11-25T07:06:08.789Z,81.09
2018-11-25T07:08:20.943Z,81.43
2018-11-25T07:10:33.178Z,80.94
2018-11-25T07:12:45.606Z,81.15
2018-11-25T07:14:57.800Z,81.47
2018-11-25T07:17:10.008Z,81.95
2018-11-25T07:19:22.201Z,81.08
2018-11-25T07:21:34.431Z,81.90
2018-11-25T07:23:46.635Z,81.88
2018-11-25T07:25:58.869Z,81.19
2018-11-25T07:28:18.314Z,80.96
2018-11-25T07:30:24.254Z,81.05
2018-11-25T07:32:36.469Z,81.19
2018-11-25T07:34:48.673Z,81.28
2018-11-25T07:37:00.872Z,82.02
2018-11-25T07:39:13.117Z,82.04
2018-11-25T07:41:25.285Z,81.90
2018-11-25T07:43:37.507Z,81.97
2018-11-25T07:45:49.809Z,81.20
2018-11-25T07:48:02.044Z,85.00
2018-11-25T07:50:14.321Z,88.45
2018-11-25T07:52:26.524Z,86.00
2018-11-25T07:54:38.732Z,83.88
2018-11-25T07:56:50.960Z,78.90
2018-11-25T07:59:03.168Z,77.10
2018-11-25T08:01:15.384Z,74.58
2018-11-25T08:03:27.587Z,73.06
2018-11-25T08:05:39.806Z,72.85
2018-11-25T08:07:51.961Z,72.38
2018-11-25T08:10:06.875Z,72.44
2018-11-25T08:12:19.096Z,72.67
2018-11-25T08:14:31.299Z,71.56
2018-11-25T08:16:43.504Z,70.10
2018-11-25T08:18:55.699Z,70.72
2018-11-25T08:21:07.952Z,69.93
2018-11-25T08:23:20.142Z,70.15
2018-11-25T08:25:32.404Z,69.65
2018-11-25T08:27:44.638Z,69.95
2018-11-25T08:29:56.868Z,69.18
2018-11-25T08:32:09.122Z,69.75
2018-11-25T08:34:21.379Z,68.99
2018-11-25T08:36:33.511Z,68.80
2018-11-25T08:38:45.773Z,68.79
2018-11-25T08:40:57.972Z,67.95
2018-11-25T08:43:10.170Z,66.83
2018-11-25T08:45:22.438Z,66.60
2018-11-25T08:47:34.624Z,66.08
2018-11-25T08:49:46.857Z,66.02
2018-11-25T08:51:59.123Z,66.22
2018-11-25T08:54:11.332Z,65.98
2018-11-25T08:56:23.595Z,65.47
2018-11-25T08:58:35.788Z,64.61
2018-11-25T09:00:48.136Z,64.68
2018-11-25T09:03:00.335Z,64.80
2018-11-25T09:05:13.638Z,63.74
2018-11-25T09:07:25.868Z,64.09
2018-11-25T09:09:38.128Z,62.69
2018-11-25T09:11:50.363Z,62.81
2018-11-25T09:14:02.658Z,63.93
2018-11-25T09:16:14.897Z,62.96
2018-11-25T09:18:27.161Z,62.67
2018-11-25T09:20:39.365Z,63.05
2018-11-25T09:22:51.999Z,62.66
2018-11-25T09:25:05.177Z,62.30
2018-11-25T09:27:17.470Z,63.20
2018-11-25T09:29:29.672Z,63.17
2018-11-25T09:31:41.977Z,64.51
2018-11-25T09:33:54.163Z,65.60
2018-11-25T09:36:06.419Z,64.75
2018-11-25T09:38:18.672Z,65.97
2018-11-25T09:40:30.901Z,66.96
2018-11-25T09:42:43.169Z,66.58
2018-11-25T09:44:55.363Z,66.54
2018-11-25T09:47:07.640Z,66.67
2018-11-25T09:49:19.859Z,66.39
2018-11-25T09:51:32.061Z,66.39
2018-11-25T09:53:44.268Z,65.62
2018-11-25T09:55:56.455Z,65.03
2018-11-25T09:58:08.658Z,63.92
2018-11-25T10:00:23.854Z,62.72
2018-11-25T10:02:36.055Z,63.28
2018-11-25T10:04:48.287Z,62.41
2018-11-25T10:07:00.573Z,62.64
2018-11-25T10:09:12.828Z,61.97
2018-11-25T10:11:25.108Z,61.16
2018-11-25T10:13:37.353Z,62.46
2018-11-25T10:15:49.591Z,61.72
2018-11-25T10:18:01.855Z,61.72
2018-11-25T10:20:15.228Z,61.88
2018-11-25T10:22:27.440Z,62.07
2018-11-25T10:24:39.668Z,62.34
2018-11-25T10:26:51.894Z,61.13
2018-11-25T10:29:04.168Z,62.22
2018-11-25T10:31:16.387Z,61.20
2018-11-25T10:33:28.582Z,61.37
2018-11-25T10:35:40.819Z,61.73
2018-11-25T10:37:53.114Z,61.67
2018-11-25T10:40:09.353Z,60.82
2018-11-25T10:42:21.559Z,61.69
2018-11-25T10:44:33.754Z,61.01
2018-11-25T10:46:46.023Z,61.11
2018-11-25T10:48:58.246Z,61.98
2018-11-25T10:51:10.503Z,61.93
2018-11-25T10:53:22.705Z,61.95
2018-11-25T10:55:35.013Z,61.16
2018-11-25T10:57:49.000Z,61.40
2018-11-25T11:00:01.237Z,60.93
2018-11-25T11:02:18.836Z,60.96
2018-11-25T11:04:36.692Z,60.83
2018-11-25T11:06:54.600Z,60.59
2018-11-25T11:09:06.857Z,60.81
2018-11-25T11:11:19.099Z,61.37
2018-11-25T11:13:31.329Z,63.76
2018-11-25T11:15:43.608Z,63.53
2018-11-25T11:17:55.836Z,59.62
2018-11-25T11:20:09.330Z,59.83
2018-11-25T11:22:21.537Z,60.17
2018-11-25T11:24:33.745Z,59.93
2018-11-25T11:26:46.036Z,60.08
2018-11-25T11:28:58.223Z,58.69
2018-11-25T11:31:13.438Z,59.21
2018-11-25T11:33:22.724Z,60.11
2018-11-25T11:35:34.947Z,60.16
2018-11-25T11:37:47.246Z,59.64
2018-11-25T11:39:59.547Z,60.00
2018-11-25T11:42:11.719Z,60.43
2018-11-25T11:44:23.987Z,60.23
2018-11-25T11:46:36.235Z,60.04
2018-11-25T11:48:48.463Z,59.79
2018-11-25T11:51:00.670Z,61.29
2018-11-25T11:53:12.914Z,59.32
2018-11-25T11:55:25.191Z,59.00
2018-11-25T11:57:37.484Z,58.45
2018-11-25T11:59:49.767Z,59.13
2018-11-25T12:02:01.964Z,58.90
2018-11-25T12:04:14.200Z,58.50
2018-11-25T12:06:26.512Z,58.85
2018-11-25T12:08:38.709Z,59.17
2018-11-25T12:10:50.944Z,59.32
2018-11-25T12:13:03.365Z,59.13
2018-11-25T12:15:30.333Z,58.43
2018-11-25T12:17:36.188Z,58.75
2018-11-25T12:19:48.432Z,59.75
2018-11-25T12:22:00.693Z,58.97
2018-11-25T12:24:12.915Z,59.12
2018-11-25T12:26:25.152Z,58.65
2018-11-25T12:28:37.353Z,58.66
2018-11-25T12:30:49.599Z,59.67
2018-11-25T12:33:01.821Z,59.12
2018-11-25T12:35:15.077Z,59.00
2018-11-25T12:37:27.298Z,59.03
2018-11-25T12:39:39.594Z,58.88
2018-11-25T12:41:51.867Z,59.16
2018-11-25T12:44:04.110Z,58.37
2018-11-25T12:46:16.344Z,59.24
2018-11-25T12:48:28.572Z,58.65
2018-11-25T12:50:40.799Z,58.92
2018-11-25T12:52:53.242Z,58.66
2018-11-25T12:55:07.831Z,58.74
2018-11-25T12:57:20.096Z,59.77
2018-11-25T12:59:32.324Z,57.86
2018-11-25T13:01:44.564Z,57.47
2018-11-25T13:03:56.778Z,57.84
2018-11-25T13:06:09.031Z,57.31
2018-11-25T13:08:21.236Z,56.85
2018-11-25T13:10:33.487Z,56.97
2018-11-25T13:12:45.744Z,57.11
2018-11-25T13:14:57.982Z,57.88
2018-11-25T13:17:10.255Z,57.47
2018-11-25T13:19:22.436Z,56.80
2018-11-25T13:21:34.662Z,56.59
2018-11-25T13:23:46.932Z,56.87
2018-11-25T13:25:59.201Z,56.95
2018-11-25T13:28:11.420Z,57.03
2018-11-25T13:30:24.850Z,57.27
2018-11-25T13:32:37.048Z,56.74
2018-11-25T13:34:49.262Z,56.27
2018-11-25T13:37:01.519Z,55.75
2018-11-25T13:39:13.796Z,54.59
2018-11-25T13:41:26.056Z,53.80
2018-11-25T13:43:38.327Z,53.36
2018-11-25T13:45:50.526Z,53.83
2018-11-25T13:48:02.832Z,54.57
2018-11-25T13:50:15.131Z,54.63
2018-11-25T13:52:27.350Z,54.56
2018-11-25T13:54:39.593Z,54.60
2018-11-25T13:56:51.820Z,55.15
2018-11-25T13:59:04.445Z,54.70
2018-11-25T14:01:16.666Z,55.01
2018-11-25T14:03:33.559Z,55.48
2018-11-25T14:05:52.519Z,54.74
2018-11-25T14:07:58.128Z,55.67
2018-11-25T14:10:14.053Z,55.79
2018-11-25T14:12:26.288Z,54.91
2018-11-25T14:14:38.537Z,55.86
2018-11-25T14:16:50.840Z,55.75
2018-11-25T14:19:03.022Z,55.31
2018-11-25T14:21:15.751Z,56.63
2018-11-25T14:23:27.496Z,56.35
2018-11-25T14:25:40.601Z,56.88
2018-11-25T14:27:54.030Z,56.91
2018-11-25T14:30:13.410Z,57.65
2018-11-25T14:32:24.601Z,56.92
2018-11-25T14:34:36.879Z,58.11
2018-11-25T14:36:49.157Z,58.05
2018-11-25T14:39:01.399Z,58.70
2018-11-25T14:41:13.625Z,59.53
2018-11-25T14:43:25.866Z,59.14
2018-11-25T14:45:38.127Z,59.67
2018-11-25T14:47:50.328Z,60.54
2018-11-25T14:50:03.083Z,60.29
2018-11-25T14:52:15.298Z,60.86
2018-11-25T14:54:27.547Z,61.23
2018-11-25T14:56:39.820Z,61.78
2018-11-25T14:58:52.086Z,61.28
2018-11-25T15:01:04.567Z,62.17
2018-11-25T15:03:16.767Z,62.34
2018-11-25T15:05:37.495Z,62.71
2018-11-25T15:07:49.766Z,64.00
2018-11-25T15:10:02.021Z,63.91
2018-11-25T15:12:14.270Z,64.37
2018-11-25T15:14:26.516Z,64.95
2018-11-25T15:16:38.799Z,65.69
2018-11-25T15:18:51.145Z,66.47
2018-11-25T15:21:03.395Z,67.35
2018-11-25T15:23:15.978Z,67.91
2018-11-25T15:25:32.130Z,69.47
2018-11-25T15:27:44.391Z,69.65
2018-11-25T15:29:56.676Z,70.94
2018-11-25T15:32:08.915Z,71.44
2018-11-25T15:34:21.151Z,71.56
2018-11-25T15:36:33.479Z,72.56
2018-11-25T15:38:45.719Z,72.84
2018-11-25T15:40:57.919Z,73.09
2018-11-25T15:43:10.804Z,73.55
2018-11-25T15:45:23.049Z,72.78
2018-11-25T15:47:35.288Z,73.66
2018-11-25T15:49:47.540Z,74.49
2018-11-25T15:51:59.747Z,74.17
2018-11-25T15:54:12.043Z,74.85
2018-11-25T15:56:24.313Z,74.25
2018-11-25T15:58:36.616Z,74.22
2018-11-25T16:00:48.891Z,74.39
2018-11-25T16:03:01.093Z,74.98
2018-11-25T16:05:15.948Z,74.74
2018-11-25T16:07:28.157Z,75.80
2018-11-25T16:09:40.491Z,75.64
2018-11-25T16:11:52.754Z,76.32
2018-11-25T16:14:05.034Z,75.92
2018-11-25T16:16:17.261Z,75.88
2018-11-25T16:18:29.527Z,75.70
2018-11-25T16:20:41.827Z,75.41
2018-11-25T16:22:57.502Z,75.67
2018-11-25T16:25:12.853Z,76.28
2018-11-25T16:27:25.963Z,76.34
2018-11-25T16:29:38.244Z,75.87
2018-11-25T16:31:50.486Z,75.69
2018-11-25T16:34:02.708Z,75.44
2018-11-25T16:36:14.937Z,75.70
2018-11-25T16:38:27.221Z,75.36
2018-11-25T16:40:39.456Z,75.62
2018-11-25T16:42:51.655Z,75.39
2018-11-25T16:45:04.700Z,76.27
2018-11-25T16:47:16.941Z,75.47
2018-11-25T16:49:29.128Z,76.04
2018-11-25T16:51:41.355Z,76.45
2018-11-25T16:53:53.602Z,75.48
2018-11-25T16:56:05.924Z,75.94
2018-11-25T16:58:18.201Z,74.82
2018-11-25T17:00:30.538Z,78.27
2018-11-25T17:02:42.834Z,77.52
2018-11-25T17:04:55.061Z,75.03
2018-11-25T17:07:07.324Z,73.50
2018-11-25T17:09:19.557Z,73.59
2018-11-25T17:11:31.808Z,73.81
2018-11-25T17:13:44.057Z,73.93
2018-11-25T17:15:56.299Z,74.86
2018-11-25T17:18:08.573Z,74.05
2018-11-25T17:20:20.804Z,74.42
2018-11-25T17:22:33.005Z,74.95
2018-11-25T17:24:45.296Z,75.45
2018-11-25T17:26:57.567Z,75.23
2018-11-25T17:29:09.836Z,74.60
2018-11-25T17:31:22.088Z,75.46
2018-11-25T17:33:34.403Z,75.16
2018-11-25T17:35:46.611Z,74.87
2018-11-25T17:37:58.818Z,75.28
2018-11-25T17:40:11.196Z,74.69
2018-11-25T17:42:23.383Z,74.95
2018-11-25T17:44:35.641Z,75.32
2018-11-25T17:46:47.947Z,75.53
2018-11-25T17:49:00.208Z,75.07
2018-11-25T17:51:12.440Z,75.68
2018-11-25T17:53:24.694Z,74.96
2018-11-25T17:55:36.925Z,75.61
2018-11-25T17:57:49.505Z,75.69
2018-11-25T18:00:03.344Z,76.09
2018-11-25T18:02:15.743Z,75.89
2018-11-25T18:04:27.972Z,75.99
2018-11-25T18:06:40.223Z,75.95
2018-11-25T18:08:52.452Z,74.66
2018-11-25T18:11:04.755Z,74.52
2018-11-25T18:13:18.160Z,75.27
2018-11-25T18:15:30.445Z,74.56
2018-11-25T18:17:47.120Z,74.98
2018-11-25T18:19:59.351Z,74.15
2018-11-25T18:22:14.189Z,74.33
2018-11-25T18:24:26.414Z,74.79
2018-11-25T18:26:38.702Z,74.47
2018-11-25T18:28:50.943Z,75.03
2018-11-25T18:31:03.208Z,74.30
2018-11-25T18:33:15.511Z,75.15
2018-11-25T18:35:27.866Z,74.47
2018-11-25T18:37:40.114Z,74.46
2018-11-25T18:39:52.297Z,75.23
2018-11-25T18:42:05.071Z,75.29
2018-11-25T18:44:17.306Z,75.36
2018-11-25T18:46:29.542Z,74.82
2018-11-25T18:48:44.223Z,74.89
2018-11-25T18:50:56.607Z,74.84
2018-11-25T18:53:09.668Z,74.53
2018-11-25T18:55:20.832Z,74.91
2018-11-25T18:57:33.096Z,74.29
2018-11-25T18:59:45.388Z,74.37
2018-11-25T19:02:01.001Z,74.93
2018-11-25T19:04:13.304Z,75.02
2018-11-25T19:06:25.540Z,74.59
2018-11-25T19:08:37.840Z,75.03
2018-11-25T19:10:50.107Z,75.38
2018-11-25T19:13:02.376Z,74.72
2018-11-25T19:15:15.902Z,74.80
2018-11-25T19:17:28.135Z,75.16
2018-11-25T19:19:40.391Z,74.75
2018-11-25T19:21:52.653Z,75.12
2018-11-25T19:24:04.938Z,74.76
2018-11-25T19:26:17.161Z,75.46
2018-11-25T19:28:29.360Z,74.36
2018-11-25T19:30:41.655Z,74.41
2018-11-25T19:32:53.916Z,74.08
2018-11-25T19:35:08.133Z,74.19
2018-11-25T19:37:20.328Z,74.86
2018-11-25T19:39:32.620Z,74.37
2018-11-25T19:41:44.836Z,75.18
2018-11-25T19:43:57.075Z,74.10
2018-11-25T19:46:09.378Z,73.79
2018-11-25T19:48:21.622Z,73.90
2018-11-25T19:50:35.221Z,74.07
2018-11-25T19:52:47.516Z,74.27
2018-11-25T19:54:59.763Z,74.46
2018-11-25T19:57:12.088Z,74.21
2018-11-25T19:59:24.362Z,74.91
2018-11-25T20:01:36.625Z,74.24
2018-11-25T20:03:48.922Z,74.16
2018-11-25T20:06:01.185Z,74.81
2018-11-25T20:08:13.446Z,74.85
2018-11-25T20:10:25.876Z,75.13
2018-11-25T20:12:40.069Z,75.03
2018-11-25T20:14:52.205Z,74.19
2018-11-25T20:17:10.408Z,74.73
2018-11-25T20:19:22.617Z,75.11
2018-11-25T20:21:40.668Z,74.50
2018-11-25T20:23:52.934Z,74.23
2018-11-25T20:26:05.318Z,74.74
2018-11-25T20:28:17.619Z,74.85
2018-11-25T20:30:31.090Z,74.45
2018-11-25T20:32:48.854Z,74.70
2018-11-25T20:35:01.122Z,74.68
2018-11-25T20:37:13.394Z,74.94
2018-11-25T20:39:29.912Z,74.29
2018-11-25T20:41:42.144Z,74.86
2018-11-25T20:43:54.404Z,75.22
2018-11-25T20:47:12.386Z,75.07
2018-11-25T20:49:24.692Z,74.71
2018-11-25T20:51:42.535Z,75.32
2018-11-25T20:53:58.048Z,75.38
2018-11-25T20:56:10.391Z,74.59
2018-11-25T20:58:22.664Z,74.62
2018-11-25T21:00:35.167Z,74.88
2018-11-25T21:02:47.395Z,74.48
2018-11-25T21:04:59.676Z,75.15
2018-11-25T21:07:11.899Z,74.35
2018-11-25T21:09:24.142Z,75.52
2018-11-25T21:11:36.415Z,75.18
2018-11-25T21:13:48.661Z,74.85
2018-11-25T21:16:00.911Z,74.90
2018-11-25T21:18:13.143Z,74.50
2018-11-25T21:20:25.706Z,74.64
2018-11-25T21:22:37.953Z,75.55
2018-11-25T21:24:50.237Z,74.97
2018-11-25T21:27:02.439Z,74.86
2018-11-25T21:29:14.677Z,75.02
2018-11-25T21:31:26.940Z,75.89
2018-11-25T21:33:39.168Z,75.44
2018-11-25T21:35:51.403Z,74.75
2018-11-25T21:38:03.639Z,75.51
2018-11-25T21:40:17.844Z,74.85
2018-11-25T21:42:30.047Z,75.41
2018-11-25T21:44:42.275Z,75.42
2018-11-25T21:46:54.504Z,74.80
2018-11-25T21:49:06.746Z,74.89
2018-11-25T21:51:19.002Z,75.56
2018-11-25T21:53:31.226Z,75.34
2018-11-25T21:55:43.419Z,74.63
2018-11-25T21:57:55.650Z,75.31
2018-11-25T22:00:10.667Z,74.55
2018-11-25T22:02:22.948Z,75.44
2018-11-25T22:04:35.164Z,74.96
2018-11-25T22:06:47.395Z,75.41
2018-11-25T22:08:59.608Z,75.62
2018-11-25T22:11:11.789Z,75.47
2018-11-25T22:13:24.002Z,75.58
2018-11-25T22:15:36.192Z,74.89
2018-11-25T22:17:48.525Z,74.65
2018-11-25T22:20:00.759Z,74.91
2018-11-25T22:22:13.047Z,75.49
2018-11-25T22:24:25.264Z,75.76
2018-11-25T22:26:37.520Z,75.51
2018-11-25T22:28:49.728Z,75.76
2018-11-25T22:31:01.911Z,75.76
2018-11-25T22:33:14.134Z,76.36
2018-11-25T22:35:26.361Z,75.47
2018-11-25T22:37:38.513Z,76.02
2018-11-25T22:39:50.731Z,76.35
2018-11-25T22:42:02.931Z,76.47
2018-11-25T22:44:15.151Z,75.97
2018-11-25T22:46:27.352Z,75.94
2018-11-25T22:48:39.596Z,76.40
2018-11-25T22:50:51.868Z,76.05
2018-11-25T22:53:04.172Z,76.53
2018-11-25T22:55:18.515Z,76.42
2018-11-25T22:57:30.723Z,76.38
2018-11-25T22:59:42.958Z,76.32
2018-11-25T23:01:55.176Z,75.40
2018-11-25T23:04:18.896Z,75.79
2018-11-25T23:06:42.525Z,75.93
2018-11-25T23:08:54.734Z,76.49
2018-11-25T23:11:06.891Z,76.78
2018-11-25T23:13:19.076Z,77.08
2018-11-25T23:15:31.353Z,76.15
2018-11-25T23:17:43.532Z,76.62
2018-11-25T23:19:55.723Z,76.17
2018-11-25T23:22:07.913Z,75.99
2018-11-25T23:24:20.100Z,76.63
2018-11-25T23:26:32.374Z,76.17
2018-11-25T23:28:44.569Z,77.10
2018-11-25T23:30:56.747Z,76.29
2018-11-25T23:33:08.931Z,76.33
2018-11-25T23:35:23.227Z,77.22
2018-11-25T23:37:35.389Z,76.91
2018-11-25T23:39:47.651Z,77.47
2018-11-25T23:41:59.844Z,77.39
2018-11-25T23:44:12.096Z,77.11
2018-11-25T23:46:24.293Z,76.64
2018-11-25T23:48:36.481Z,77.10
2018-11-25T23:50:48.799Z,77.53
2018-11-25T23:53:01.050Z,76.63
2018-11-25T23:55:13.762Z,76.66
2018-11-25T23:57:25.975Z,76.70
2018-11-25T23:59:38.196Z,77.75
